createdAt,value
2019-05-13T00:04:33.175Z,101944.46
2019-05-13T00:09:34.858Z,101942.77
2019-05-13T00:14:36.446Z,101946.58
2019-05-13T00:19:38.013Z,101947.15
2019-05-13T00:24:39.589Z,101958.62
2019-05-13T00:29:41.164Z,101954.00
2019-05-13T00:34:44.550Z,101963.91
2019-05-13T00:39:46.177Z,101972.85
2019-05-13T00:44:47.781Z,101976.03
2019-05-13T00:49:49.331Z,101979.31
2019-05-13T00:54:53.008Z,101982.98
2019-05-13T00:59:54.386Z,101982.67
2019-05-13T01:04:56.074Z,101986.73
2019-05-13T01:09:57.650Z,101988.07
2019-05-13T01:14:59.211Z,101991.45
2019-05-13T01:20:00.790Z,101992.02
2019-05-13T01:25:03.943Z,101997.61
2019-05-13T01:30:06.088Z,101998.11
2019-05-13T01:35:07.897Z,101996.63
2019-05-13T01:40:09.784Z,101999.53
2019-05-13T01:45:13.671Z,102003.27
2019-05-13T01:50:15.631Z,102006.66
2019-05-13T01:55:17.285Z,102013.17
2019-05-13T02:00:19.539Z,102009.23
2019-05-13T02:05:21.118Z,102014.18
2019-05-13T02:10:41.203Z,102019.00
2019-05-13T02:15:45.135Z,102020.03
2019-05-13T02:20:46.407Z,102028.39
2019-05-13T02:25:47.973Z,102031.21
2019-05-13T02:30:49.536Z,102027.22
2019-05-13T02:35:53.102Z,102033.91
2019-05-13T02:40:54.611Z,102046.67
2019-05-13T02:45:56.121Z,102029.87
2019-05-13T02:50:57.698Z,102042.66
2019-05-13T02:56:02.658Z,102034.61
2019-05-13T03:01:03.420Z,102042.11
2019-05-13T03:06:05.323Z,102047.77
2019-05-13T03:11:06.995Z,102048.59
2019-05-13T03:16:17.595Z,102049.01
2019-05-13T03:21:22.898Z,102052.19
2019-05-13T03:26:23.618Z,102055.45
2019-05-13T03:31:26.694Z,102057.17
2019-05-13T03:36:28.593Z,102064.09
2019-05-13T03:41:32.915Z,102062.97
2019-05-13T03:46:37.848Z,102057.55
2019-05-13T03:51:42.705Z,102065.97
2019-05-13T03:56:43.126Z,102066.98
2019-05-13T04:01:44.672Z,102076.08
2019-05-13T04:06:46.259Z,102075.62
2019-05-13T04:11:47.928Z,102077.41
2019-05-13T04:16:53.196Z,102086.09
2019-05-13T04:21:54.164Z,102094.60
2019-05-13T04:26:55.822Z,102097.86
2019-05-13T04:31:57.483Z,102090.94
2019-05-13T04:37:02.150Z,102096.95
2019-05-13T04:42:02.780Z,102097.72
2019-05-13T04:47:04.431Z,102105.94
2019-05-13T04:52:06.118Z,102110.91
2019-05-13T04:57:07.788Z,102115.83
2019-05-13T05:02:54.532Z,102119.50
2019-05-13T05:08:17.097Z,102120.89
2019-05-13T05:13:56.519Z,102128.00
2019-05-13T05:19:43.631Z,102130.46
2019-05-13T05:25:03.217Z,102136.08
2019-05-13T05:30:23.092Z,102134.39
2019-05-13T05:36:01.832Z,102136.42
2019-05-13T05:41:04.524Z,102141.30
2019-05-13T05:46:06.279Z,102147.09
2019-05-13T05:51:09.039Z,102151.14
2019-05-13T05:56:14.579Z,102154.03
2019-05-13T06:01:17.655Z,102151.97
2019-05-13T06:06:22.738Z,102154.11
2019-05-13T06:11:23.682Z,102160.85
2019-05-13T06:16:25.235Z,102168.05
2019-05-13T06:21:26.904Z,102162.25
2019-05-13T06:26:28.680Z,102160.08
2019-05-13T06:31:32.264Z,102169.34
2019-05-13T06:36:34.022Z,102160.27
2019-05-13T06:41:35.581Z,102175.78
2019-05-13T06:46:37.176Z,102174.59
2019-05-13T06:51:38.855Z,102172.42
2019-05-13T06:56:42.856Z,102186.16
2019-05-13T07:01:44.025Z,102185.67
2019-05-13T07:06:45.573Z,102185.00
2019-05-13T07:11:47.359Z,102183.65
2019-05-13T07:16:49.035Z,102177.84
2019-05-13T07:21:52.094Z,102180.27
2019-05-13T07:26:54.079Z,102180.70
2019-05-13T07:31:55.645Z,102183.58
2019-05-13T07:36:57.306Z,102179.14
2019-05-13T07:42:02.581Z,102177.89
2019-05-13T07:47:03.608Z,102179.19
2019-05-13T07:52:05.560Z,102177.19
2019-05-13T07:57:07.120Z,102171.55
2019-05-13T08:02:08.683Z,102170.58
2019-05-13T08:07:12.008Z,102182.37
2019-05-13T08:12:14.659Z,102162.72
2019-05-13T08:17:16.661Z,102177.48
2019-05-13T08:22:18.339Z,102176.87
2019-05-13T08:27:21.578Z,102180.13
2019-05-13T08:32:23.635Z,102178.20
2019-05-13T08:37:25.348Z,102169.83
2019-05-13T08:42:26.995Z,102178.01
2019-05-13T08:47:28.663Z,102169.17
2019-05-13T08:52:31.331Z,102167.81
2019-05-13T08:57:33.279Z,102162.43
2019-05-13T09:02:34.865Z,102155.81
2019-05-13T09:07:36.547Z,102162.30
2019-05-13T09:12:40.323Z,102150.70
2019-05-13T09:17:42.463Z,102144.66
2019-05-13T09:22:44.249Z,102152.95
2019-05-13T09:27:45.910Z,102146.28
2019-05-13T09:32:47.467Z,102148.20
2019-05-13T09:37:51.455Z,102148.61
2019-05-13T09:42:55.267Z,102141.84
2019-05-13T09:47:56.064Z,102137.51
2019-05-13T09:52:57.643Z,102141.33
2019-05-13T09:57:59.197Z,102142.94
2019-05-13T10:03:02.189Z,102128.39
2019-05-13T10:08:04.052Z,102129.56
2019-05-13T10:13:11.510Z,102125.69
2019-05-13T10:18:09.306Z,102138.86
2019-05-13T10:23:12.562Z,102123.58
2019-05-13T10:28:14.713Z,102129.15
2019-05-13T10:33:16.372Z,102119.47
2019-05-13T10:38:18.546Z,102125.32
2019-05-13T10:43:31.160Z,102122.25
2019-05-13T10:48:23.795Z,102109.43
2019-05-13T10:53:25.344Z,102119.13
2019-05-13T10:58:26.961Z,102116.39
2019-05-13T11:03:28.659Z,102113.28
2019-05-13T11:08:33.044Z,102113.16
2019-05-13T11:13:50.393Z,102102.61
2019-05-13T11:18:37.513Z,102104.05
2019-05-13T11:23:39.067Z,102102.73
2019-05-13T11:28:42.894Z,102088.06
2019-05-13T11:33:44.199Z,102095.16
2019-05-13T11:38:45.760Z,102083.98
2019-05-13T11:44:08.206Z,102085.86
2019-05-13T11:48:51.860Z,102089.55
2019-05-13T11:53:53.897Z,102077.64
2019-05-13T11:58:55.744Z,102074.80
2019-05-13T12:03:57.390Z,102063.41
2019-05-13T12:09:02.776Z,102060.82
2019-05-13T12:14:02.762Z,102067.13
2019-05-13T12:19:05.049Z,102057.16
2019-05-13T12:24:10.878Z,102056.45
2019-05-13T12:29:17.832Z,102062.42
2019-05-13T12:34:13.658Z,102054.13
2019-05-13T12:39:15.424Z,102047.70
2019-05-13T12:44:16.989Z,102044.30
2019-05-13T12:49:18.529Z,102030.11
2019-05-13T12:54:23.375Z,102023.79
2019-05-13T12:59:23.754Z,102006.64
2019-05-13T13:04:25.415Z,102009.52
2019-05-13T13:09:26.991Z,102001.39
2019-05-13T13:14:36.285Z,101988.34
2019-05-13T13:19:33.969Z,101991.16
2019-05-13T13:24:35.580Z,101986.09
2019-05-13T13:29:37.341Z,101977.66
2019-05-13T13:34:38.902Z,101980.05
2019-05-13T13:39:43.188Z,101983.77
2019-05-13T13:44:43.950Z,101969.00
2019-05-13T13:49:45.534Z,101960.16
2019-05-13T13:54:47.223Z,101952.02
2019-05-13T14:00:16.350Z,101953.46
2019-05-13T14:04:54.149Z,101959.77
2019-05-13T14:09:55.871Z,101956.89
2019-05-13T14:14:57.445Z,101952.17
2019-05-13T14:19:59.137Z,101940.34
2019-05-13T14:25:00.918Z,101937.71
2019-05-13T14:30:02.888Z,101931.23
2019-05-13T14:35:08.560Z,101931.23
2019-05-13T14:40:08.490Z,101928.47
2019-05-13T14:45:12.163Z,101927.57
2019-05-13T14:50:13.891Z,101930.39
2019-05-13T14:55:15.572Z,101924.47
2019-05-13T15:00:17.348Z,101920.06
2019-05-13T15:05:19.019Z,101925.03
2019-05-13T15:10:21.900Z,101911.18
2019-05-13T15:15:23.752Z,101908.77
2019-05-13T15:20:25.409Z,101911.29
2019-05-13T15:25:27.084Z,101900.76
2019-05-13T15:30:28.733Z,101901.42
2019-05-13T15:35:32.137Z,101908.91
2019-05-13T15:40:33.771Z,101908.88
2019-05-13T15:45:35.448Z,101905.52
2019-05-13T15:50:37.005Z,101907.20
2019-05-13T15:55:38.772Z,101898.23
2019-05-13T16:00:41.884Z,101902.17
2019-05-13T16:05:43.719Z,101896.48
2019-05-13T16:10:45.401Z,101894.84
2019-05-13T16:15:47.059Z,101886.09
2019-05-13T16:20:48.620Z,101877.70
2019-05-13T16:25:52.126Z,101874.66
2019-05-13T16:30:53.654Z,101872.44
2019-05-13T16:35:55.214Z,101884.75
2019-05-13T16:40:56.813Z,101882.17
2019-05-13T16:45:58.363Z,101880.44
2019-05-13T16:51:00.060Z,101878.70
2019-05-13T16:56:02.022Z,101889.44
2019-05-13T17:01:03.809Z,101874.94
2019-05-13T17:06:05.351Z,101880.46
2019-05-13T17:11:06.918Z,101883.48
2019-05-13T17:16:08.495Z,101880.06
2019-05-13T17:21:10.185Z,101875.48
2019-05-13T17:26:11.888Z,101870.91
2019-05-13T17:31:13.705Z,101866.10
2019-05-13T17:36:15.272Z,101877.71
2019-05-13T17:41:16.842Z,101867.83
2019-05-13T17:46:18.424Z,101869.33
2019-05-13T17:51:22.339Z,101874.80
2019-05-13T17:56:23.659Z,101867.41
2019-05-13T18:01:25.219Z,101874.13
2019-05-13T18:06:26.779Z,101865.84
2019-05-13T18:11:28.350Z,101869.78
2019-05-13T18:16:32.237Z,101872.05
2019-05-13T18:21:33.820Z,101870.86
2019-05-13T18:26:35.424Z,101877.77
2019-05-13T18:31:36.986Z,101872.16
2019-05-13T18:36:38.556Z,101864.16
2019-05-13T18:41:41.283Z,101869.03
2019-05-13T18:46:43.028Z,101861.25
2019-05-13T18:51:44.732Z,101857.42
2019-05-13T18:56:46.707Z,101855.33
2019-05-13T19:01:48.500Z,101845.09
2019-05-13T19:06:51.634Z,101852.29
2019-05-13T19:11:53.715Z,101849.27
2019-05-13T19:16:55.285Z,101854.92
2019-05-13T19:21:56.908Z,101862.30
2019-05-13T19:26:58.495Z,101866.21
2019-05-13T19:32:01.737Z,101863.31
2019-05-13T19:37:03.929Z,101872.45
2019-05-13T19:42:05.510Z,101869.03
2019-05-13T19:47:07.180Z,101870.25
2019-05-13T19:52:08.844Z,101870.08
2019-05-13T19:57:11.925Z,101857.42
2019-05-13T20:02:13.803Z,101864.74
2019-05-13T20:07:15.453Z,101859.92
2019-05-13T20:12:17.112Z,101862.59
2019-05-13T20:17:18.668Z,101850.86
2019-05-13T20:22:20.212Z,101854.11
2019-05-13T20:27:21.766Z,101854.98
2019-05-13T20:32:23.424Z,101856.55
2019-05-13T20:37:24.994Z,101854.63
2019-05-13T20:42:26.542Z,101858.86
2019-05-13T20:47:28.093Z,101852.52
2019-05-13T20:52:31.399Z,101855.17
2019-05-13T20:57:33.152Z,101854.23
2019-05-13T21:02:34.722Z,101853.16
2019-05-13T21:07:36.251Z,101850.66
2019-05-13T21:12:37.806Z,101852.93
2019-05-13T21:17:39.355Z,101854.74
2019-05-13T21:22:42.413Z,101849.22
2019-05-13T21:27:44.108Z,101844.09
2019-05-13T21:32:45.887Z,101843.25
2019-05-13T21:37:47.434Z,101852.63
2019-05-13T21:42:48.989Z,101846.42
2019-05-13T21:47:50.553Z,101846.41
2019-05-13T21:52:52.091Z,101845.00
2019-05-13T21:57:53.633Z,101845.69
2019-05-13T22:02:55.183Z,101846.67
2019-05-13T22:07:56.726Z,101841.13
2019-05-13T22:12:58.331Z,101847.23
2019-05-13T22:18:01.906Z,101840.53
2019-05-13T22:23:03.603Z,101836.70
2019-05-13T22:28:05.196Z,101844.13
2019-05-13T22:33:06.875Z,101847.00
2019-05-13T22:38:08.439Z,101839.66
2019-05-13T22:43:12.188Z,101841.11
2019-05-13T22:48:14.966Z,101846.66
2019-05-13T22:53:16.769Z,101847.50
2019-05-13T22:58:18.418Z,101850.63
2019-05-13T23:03:20.111Z,101851.80
2019-05-13T23:08:21.826Z,101846.88
2019-05-13T23:13:23.462Z,101841.39
2019-05-13T23:18:25.171Z,101848.67
2019-05-13T23:23:26.782Z,101839.71
2019-05-13T23:28:28.490Z,101838.63
2019-05-13T23:33:31.355Z,101830.88
2019-05-13T23:38:33.051Z,101828.70
2019-05-13T23:43:34.643Z,101823.20
2019-05-13T23:48:36.290Z,101824.28
2019-05-13T23:53:37.984Z,101820.57
2019-05-13T23:58:41.383Z,101823.84
